KNMI Weerbulletins

Hier vind u de KMNI verwachtingen en de waarnemingen

Bron: KNMI website
Laatste update op 25-06-2017 om 05:28
ZCZC
FBNL50 EHDB 250234
WEERBULLETIN VOOR DE LUCHTVAART
.
GELDIG 250300/250900 UTC
.
SITUATIE: EEN NO-ZW GEORIENTEERDE FRONTALE ZONE LIGT BOVEN HET MIDDEN
VAN HET LAND, TREKT OOSTWAARTS EN LIGT AAN HET EINDE VAN DE PERIODE
BOVEN HET ZUIDOOSTEN. IN DE FRONTALE ZONE IS DE LUCHT VOCHTIG EN
ONSTABIEL VAN OPBOUW TOT FL100, TEN WESTEN VAN DE FRONTALE ZONE VOERT
EEN WESTELIJKE STROMING MARITIEM POLAIRE LUCHT AAN DIE IN DE TWEEDE
HELFT VAN DE PERIODE ONSTABIEL VAN OPBOUW WORDT TOT AAN 6000 VT.
.
SIGNIFICANT WEER: IN DE FRONTALE ZONE OP VEEL PLAATSEN LICHTE TOT
MATIGE REGEN EN ENKELE GEISOLEERDE INGEBEDDE LICHTE REGENBUIEN. TEN
WESTEN VAN DE FRONTALE ZONE LOKAAL LICHTE, MOGELIJK MATIGE,
(MOT)REGEN EN KANS OP ENKELE GEISOLEERDE LICHTE REGENBUIEN.
.
WIND: ZUIDWEST TOT WEST 7-12 KN, AAN DE KUST EN BOVEN HET IJSSELMEER
13-18 KN.
.
BEWOLKING: IN DE FRONTALE ZONE BKN/OVC SC 1000-1500 VT, LOKAAL BKN ST
500-1000 VT EN KANS OP LOKAAL SCT/BKN ST BENEDEN 500 VT. IN EEN BUI
FEW TCU ROND 1500 VT. TOPPEN TOT ROND FL100. ELDERS BKN SC/CU
1500-3500 VT, TEN OOSTEN VAN DE FRONTALE ZONE LOKAAL BKN SC 1000-1500
VT, TOPPEN 5000-6000 VT. TEN WESTEN VAN DE FRONTALE ZONE BOVENDIEN
BKN SC/AS 6000-8000 VT, TOPPEN ROND FL100.
.
ZICHT: MEER DAN 10 KM, IN NEERSLAG 5-8 KM, SOMS 3-5 KM.
.
NULGRADEN NIVEAU: ROND FL100, IN HET NOORDEN FL090-FL100.
.
HOOGTEWINDEN EN TEMPERATUREN:
       03 UTC:    09 UTC:
0500VT 260/20 +17 260/15 +16
1500VT 270/25 +14 260/20 +13
3000VT 280/25 +12 270/25 +10
FL 050 270/30 +09 260/30 +07
FL 100 260/35 +02 270/40 +01
.
THERMIEK: VANAF 08 UTC ZWAK, TEN WESTEN VAN DE FRONTALE ZONE
GELEIDELIJK MATIG. VERDER OP UITGEBREIDE SCHAAL VERZWAKT T.G.V.
AFSCHERMING DOOR BEWOLKING EN LOKAAL VERSTOORD DOOR NEERSLAG. NABIJ
DE KUST VERWAAID.
.
MAX. TEMPERATUUR: VAN 17 GRADEN CELSIUS OP DE WADDEN TOT 22 IN HET
ZUIDOOSTEN.
.
VOORUITZICHTEN VOOR DE PERIODE VAN 250900/251500: DE FRONTALE ZONE
VERLAAT IN DE EERSTE HELFT VAN DE PERIODE HET LAND. ELDERS BLIJFT NOG
LOKAAL LICHTE REGEN VOORKOMEN EN ZIJN ER OOK NOG GEISOLEERDE LICHTE
REGENBUIEN. DE WIND WORDT LANDINWAARTS VLAGERIG MET UITSCHIETERS TOT
ROND 20 KN.
.
DAGLICHTPERIODE: 03.06 TOT 20.19 UTC.=
NNNN
Bron: KNMI website
Laatste update op 25-06-2017 om 05:28
ZCZC
FT242300 EHAM     AMSTERDAM/SCHIPHOL   NLD   -3 m.
TAF EHAM 242255Z 2500/2606 23014KT 9999 BKN013
    TEMPO 2500/2505 6000 -RADZ -SHRA
    PROB40 TEMPO 2500/2504 3500 DZRA BKN008
    BECMG 2503/2506 26010KT BKN030
    BECMG 2508/2511 26016KT
    BECMG 2516/2519 24009KT
    TEMPO 2518/2523 6000 -RADZ -SHRA BKN012 SCT015TCU
    BECMG 2521/2524 30007KT SCT040=
ZCZC
FT242300 EHBK     MAASTRICHT/MAASTRICHT-AACHEN   NLD   114 m.
TAF EHBK 242313Z 2500/2606 23010KT 9999 BKN035
    PROB40 TEMPO 2502/2511 6000 -RADZ -SHRA BKN008 FEW015TCU
    BECMG 2506/2509 26016KT
    BECMG 2518/2521 23010KT
    PROB30 TEMPO 2523/2606 5000 -RADZ -SHRA BKN008 FEW015TCU
    BECMG 2603/2606 30005KT=
ZCZC
FT242300 EHGG     GRONINGEN/EELDE   NLD   5 m.
TAF EHGG 242312Z 2500/2606 23012KT 9999 BKN012
    TEMPO 2500/2506 4000 -DZRA -SHRA BKN005 FEW015TCU
    BECMG 2503/2506 27011KT SCT018 BKN040
    PROB40 TEMPO 2509/2523 5000 -SHRA -RADZ BKN015 SCT018TCU
    BECMG 2518/2521 24005KT=
ZCZC
FT242300 EHRD     ROTTERDAM/THE HAGUE AIRPORT   NLD   -5 m.
TAF EHRD 242257Z 2500/2606 23014KT 9999 BKN013
    TEMPO 2500/2506 6000 -RADZ -SHRA
    PROB40 TEMPO 2500/2505 3500 DZRA BKN008
    BECMG 2504/2507 26010KT BKN030
    BECMG 2508/2511 26016KT
    BECMG 2516/2519 24009KT
    TEMPO 2518/2523 6000 -RADZ -SHRA BKN012 SCT015TCU
    BECMG 2521/2524 30007KT SCT040=
ZCZC
FT242300 EHEH     EINDHOVEN/EINDHOVEN   NLD   22 m.
TAF EHEH 242328Z 2500/2606 22008KT 9999 FEW014 BKN016
    PROB30 TEMPO 2503/2507 SCT012 BKN015
    BECMG 2508/2511 26010KT SCT020 BKN030
    TEMPO 2508/2515 26012G22KT
    BECMG 2523/2602 31012KT
    PROB30 TEMPO 2600/2606 FEW014 SCT015 BKN020=
ZCZC
FC250000 EHWO     WOENSDRECHT/WOENSDRECHT   NLD   19 m.
TAF EHWO 250000Z NIL=
ZCZC
FC250000 EHVK     VOLKEL/VOLKEL   NLD   21 m.
TAF EHVK 250000Z NIL=
ZCZC
FC250000 EHLW     LEEUWARDEN/LEEUWARDEN   NLD   1 m.
TAF EHLW 250049Z 2501/2513 24012KT 6000 SCT006 BKN015
    BECMG 2501/2504 27012KT SCT020 SCT040
    PROB30 TEMPO 2501/2502 25012G22KT 4000 -RADZ SCT005
    BKN008
    BECMG 2505/2508 27013G23KT=
ZCZC
FC250000 EHGR     GILZE-RIJEN/GILZE-RIJEN   NLD   14 m.
TAF EHGR 250000Z NIL=
ZCZC
FC250100 EHKD     DE KOOY/DE KOOY   NLD   1 m.
TAF EHKD 250054Z 2501/2513 27010KT 9000 SCT030 BKN040
    BECMG 2505/2508 27013G23KT=
Bron: KNMI website
Laatste update op 25-06-2017 om 05:28
ZCZC
SA250255 EHKD     DE KOOY/DE KOOY   NLD   1 m.
METAR EHKD 250255Z AUTO 24010KT 9999 BKN047 OVC053 17/16 Q1008 BLU=
ZCZC
SA250255 EHFD     F3-FB-1   NLD   50 m.
METAR EHFD 250255Z AUTO 28020KT 9999 NSC 15/10 Q1004=
ZCZC
SA250255 EHAM     AMSTERDAM/SCHIPHOL   NLD   -3 m.
METAR EHAM 250255Z 26012KT 9000 -RADZ BKN008 OVC011 17/16 Q1009 TEMPO
6000=
ZCZC
SA250255 EHVL     VLIELAND   NLD   10 m.
METAR EHVL 250255Z AUTO 25014KT 9999 OVC052 16/15 Q1007 BLU=
ZCZC
SA250255 EHJR     K13-A   NLD   37 m.
METAR EHJR 250255Z NIL=
ZCZC
SA250255 EHLW     LEEUWARDEN/LEEUWARDEN   NLD   1 m.
METAR EHLW 250255Z AUTO 23007KT 9999 BKN056 BKN063 BKN072 16/15 Q1007
 BLU=
ZCZC
SA250255 EHDL     ARNHEM/DEELEN   NLD   48 m.
METAR EHDL 250255Z AUTO 23008KT 190V280 9999 SCT007 BKN009 OVC010
17/16 Q1009 GRN=
ZCZC
SA250255 EHGG     GRONINGEN/EELDE   NLD   5 m.
METAR EHGG 250255Z AUTO 29007KT 250V320 5000 -RA FEW010 FEW015CB
SCT031 OVC037 16/16 Q1008=
ZCZC
SA250255 EHSC     LICHTEILAND GOEREE   NLD   22 m.
METAR EHSC 250255Z NIL=
ZCZC
SA250255 EHSA     EURO PLATFORM   NLD   19 m.
METAR EHSA 250255Z NIL=
ZCZC
SA250255 EHWO     WOENSDRECHT/WOENSDRECHT   NLD   19 m.
METAR EHWO 250255Z AUTO 24017KT 9999 SCT015 OVC019 18/15 Q1011 WHT=
ZCZC
SA250255 EHRD     ROTTERDAM/THE HAGUE AIRPORT   NLD   -5 m.
METAR EHRD 250255Z AUTO 24011KT 210V280 6000 -RA FEW006 SCT007 BKN009
FEW015CB 17/16 Q1010 RERA REDZ NOSIG=
ZCZC
SA250255 EHGR     GILZE-RIJEN/GILZE-RIJEN   NLD   14 m.
METAR EHGR 250255Z AUTO 24008KT 210V270 9999 BKN016 OVC019 18/15
Q1010 WHT=
ZCZC
SA250255 EHEH     EINDHOVEN/EINDHOVEN   NLD   22 m.
METAR EHEH 250255Z AUTO 22010KT 190V250 9999 FEW009 SCT011 BKN013
17/16 Q1011 GRN=
ZCZC
SA250255 EHVK     VOLKEL/VOLKEL   NLD   21 m.
METAR EHVK 250255Z AUTO 23011KT 200V260 3600 BR FEW009 BKN011 OVC013
17/16 Q1010 YLO=
ZCZC
SA250255 EHBK     MAASTRICHT/MAASTRICHT-AACHEN   NLD   114 m.
METAR EHBK 250255Z AUTO 23016KT 200V260 3700 DZ FEW008 SCT010 BKN013
16/15 Q1012=
ZCZC
SA250255 EHFZ     F16-A   NLD   43 m.
METAR EHFZ 250255Z AUTO 28015KT 9999 NSC 15/11 Q1006=
ZCZC
SA250255 EHKV     K14-FA-1C   NLD   41 m.
METAR EHKV 250255Z AUTO 27019KT 9999 FEW026 16/13 Q1009=
ZCZC
SA250255 EHMG     L9-FF-1   NLD   44 m.
METAR EHMG 250255Z AUTO 26019KT 9999 NSC 17/13 Q1007=
ZCZC
SA250255 EHMA     AWG-1   NLD   40 m.
METAR EHMA 250255Z AUTO 24012KT 9999 FEW015CB 17/15 Q1007=
ZCZC
SA250255 EHDV     D15-FA-1   NLD   42 m.
METAR EHDV 250255Z AUTO 27023KT 250V310 //// // NSC 15/10 Q1006 RE//=
ZCZC
SA250255 EHAK     A12-CPP   NLD   48 m.
METAR EHAK 250255Z AUTO 28022KT 9999 FEW027/// SCT048/// 14/08 Q1004=
ZCZC
SA250255 EHQE     HOORN-A   NLD   50 m.
METAR EHQE 250255Z AUTO 27022KT //// // FEW015CB BKN044 BKN049 17/14
Q1008 RE//=
ZCZC
SA250255 EHJA     J6-A   NLD   45 m.
METAR EHJA 250255Z AUTO 27022KT 9999 NSC 15/10 Q1007=
ZCZC
SA250255 EHPG     P11-B   NLD   41 m.
METAR EHPG 250255Z AUTO 25018KT 9000 FEW006 BKN028 OVC032 17/15
Q1009=
ZCZC
SA250255 EHHW     BUITENGAATS/BG-OHVS2      42 m.
METAR EHHW 250255Z AUTO 27015KT 9999 ///////// 17/12 Q1006=
ZCZC
SA250255 EHFS     VLISSINGEN AWS   NLD   8 m.
METAR EHFS 250255Z AUTO 24020KT 9999 SCT009/// BKN011/// BKN014///
18/16 Q1011=